Twin Lakes, Wisconsin
Current Conditions -  °F | °C
As of 7:15 PM on Monday 26 Jan 2015 (Local Time) from KBUU Reporting Station
Light Snow Light Snow  
Wind Chill: 15°   Ceiling: 700
Heat Index: 24°   Visibility: 2mi
Dew Point: 22°   Wind: 7mph
Humidity: 96%   Direction: 160°SSE
Pressure: 29.89"   Gusts: NA
Location:  42.53°N, 88.25°W
Report Text: KBUU 270115Z AUTO 16006KT 2SM -SN OVC007 M05/M05 A2989 RMK AO2 P0001 T10471053
Loading
Personal Weather Stations






























Interactive Weather Map New forecast layout! Learn more

10-Day Weather Forecast

Advertisements
Track Severe Weather on mobile